sensor_id;sensor_type;location;lat;lon;timestamp;P1;durP1;ratioP1;P2;durP2;ratioP2
57730;SDS011;43570;47.476;19.040;2023-08-21T00:01:02;16.02;;;14.32;;
57730;SDS011;43570;47.476;19.040;2023-08-21T00:03:27;15.20;;;13.80;;
57730;SDS011;43570;47.476;19.040;2023-08-21T00:05:52;16.12;;;14.70;;
57730;SDS011;43570;47.476;19.040;2023-08-21T00:08:18;15.85;;;14.05;;
57730;SDS011;43570;47.476;19.040;2023-08-21T00:10:43;17.17;;;15.48;;
57730;SDS011;43570;47.476;19.040;2023-08-21T00:13:09;16.87;;;15.23;;
57730;SDS011;43570;47.476;19.040;2023-08-21T00:15:34;16.15;;;14.60;;
57730;SDS011;43570;47.476;19.040;2023-08-21T00:18:00;16.58;;;15.07;;
57730;SDS011;43570;47.476;19.040;2023-08-21T00:20:26;16.20;;;14.60;;
57730;SDS011;43570;47.476;19.040;2023-08-21T00:22:51;15.68;;;14.15;;
57730;SDS011;43570;47.476;19.040;2023-08-21T00:25:17;15.35;;;13.88;;
57730;SDS011;43570;47.476;19.040;2023-08-21T00:27:42;15.32;;;13.88;;
57730;SDS011;43570;47.476;19.040;2023-08-21T00:30:08;17.52;;;14.95;;
57730;SDS011;43570;47.476;19.040;2023-08-21T00:32:34;15.88;;;14.25;;
57730;SDS011;43570;47.476;19.040;2023-08-21T00:34:59;15.23;;;13.77;;
57730;SDS011;43570;47.476;19.040;2023-08-21T00:37:24;15.80;;;14.40;;
57730;SDS011;43570;47.476;19.040;2023-08-21T00:39:50;15.45;;;14.05;;
57730;SDS011;43570;47.476;19.040;2023-08-21T00:42:15;15.05;;;13.65;;
57730;SDS011;43570;47.476;19.040;2023-08-21T00:44:41;14.87;;;13.38;;
57730;SDS011;43570;47.476;19.040;2023-08-21T00:47:06;15.05;;;13.50;;
57730;SDS011;43570;47.476;19.040;2023-08-21T00:49:31;15.43;;;13.95;;
57730;SDS011;43570;47.476;19.040;2023-08-21T00:51:57;15.23;;;13.70;;
57730;SDS011;43570;47.476;19.040;2023-08-21T00:54:23;15.15;;;13.65;;
57730;SDS011;43570;47.476;19.040;2023-08-21T00:56:48;15.13;;;13.73;;
57730;SDS011;43570;47.476;19.040;2023-08-21T00:59:17;15.32;;;13.88;;
57730;SDS011;43570;47.476;19.040;2023-08-21T01:01:43;15.13;;;13.68;;
57730;SDS011;43570;47.476;19.040;2023-08-21T01:04:09;14.93;;;13.60;;
57730;SDS011;43570;47.476;19.040;2023-08-21T01:06:34;15.68;;;14.23;;
57730;SDS011;43570;47.476;19.040;2023-08-21T01:12:01;14.63;;;13.43;;
57730;SDS011;43570;47.476;19.040;2023-08-21T01:17:16;15.07;;;13.68;;
57730;SDS011;43570;47.476;19.040;2023-08-21T01:19:43;14.95;;;13.57;;
57730;SDS011;43570;47.476;19.040;2023-08-21T01:22:09;16.05;;;14.40;;
57730;SDS011;43570;47.476;19.040;2023-08-21T01:24:35;15.80;;;14.27;;
57730;SDS011;43570;47.476;19.040;2023-08-21T01:27:00;15.35;;;13.88;;
57730;SDS011;43570;47.476;19.040;2023-08-21T01:29:27;15.38;;;13.98;;
57730;SDS011;43570;47.476;19.040;2023-08-21T01:32:14;15.85;;;14.45;;
57730;SDS011;43570;47.476;19.040;2023-08-21T01:34:41;17.63;;;14.33;;
57730;SDS011;43570;47.476;19.040;2023-08-21T01:37:07;15.60;;;14.07;;
57730;SDS011;43570;47.476;19.040;2023-08-21T01:39:33;16.23;;;14.32;;
57730;SDS011;43570;47.476;19.040;2023-08-21T01:41:58;14.80;;;13.40;;
57730;SDS011;43570;47.476;19.040;2023-08-21T01:44:24;15.32;;;13.85;;
57730;SDS011;43570;47.476;19.040;2023-08-21T01:46:51;18.83;;;13.73;;
57730;SDS011;43570;47.476;19.040;2023-08-21T01:49:16;14.65;;;13.32;;
57730;SDS011;43570;47.476;19.040;2023-08-21T01:51:44;15.30;;;13.60;;
57730;SDS011;43570;47.476;19.040;2023-08-21T01:54:09;15.10;;;13.75;;
57730;SDS011;43570;47.476;19.040;2023-08-21T01:56:34;15.27;;;13.88;;
57730;SDS011;43570;47.476;19.040;2023-08-21T01:59:01;14.25;;;12.75;;
57730;SDS011;43570;47.476;19.040;2023-08-21T02:01:27;14.63;;;13.13;;
57730;SDS011;43570;47.476;19.040;2023-08-21T02:03:52;14.27;;;12.98;;
57730;SDS011;43570;47.476;19.040;2023-08-21T02:06:17;14.93;;;13.62;;
57730;SDS011;43570;47.476;19.040;2023-08-21T02:08:43;14.02;;;12.70;;
57730;SDS011;43570;47.476;19.040;2023-08-21T02:11:08;14.70;;;13.35;;
57730;SDS011;43570;47.476;19.040;2023-08-21T02:13:33;15.32;;;13.75;;
57730;SDS011;43570;47.476;19.040;2023-08-21T02:15:59;14.43;;;13.13;;
57730;SDS011;43570;47.476;19.040;2023-08-21T02:18:24;14.82;;;13.45;;
57730;SDS011;43570;47.476;19.040;2023-08-21T02:20:50;15.13;;;13.73;;
57730;SDS011;43570;47.476;19.040;2023-08-21T02:23:15;14.32;;;13.05;;
57730;SDS011;43570;47.476;19.040;2023-08-21T02:25:41;13.70;;;12.30;;
57730;SDS011;43570;47.476;19.040;2023-08-21T02:28:07;14.87;;;13.38;;
57730;SDS011;43570;47.476;19.040;2023-08-21T02:30:32;14.43;;;13.00;;
57730;SDS011;43570;47.476;19.040;2023-08-21T02:32:58;15.85;;;13.95;;
57730;SDS011;43570;47.476;19.040;2023-08-21T02:35:23;13.40;;;12.10;;
57730;SDS011;43570;47.476;19.040;2023-08-21T02:37:49;13.73;;;12.50;;
57730;SDS011;43570;47.476;19.040;2023-08-21T02:40:14;14.63;;;13.05;;
57730;SDS011;43570;47.476;19.040;2023-08-21T02:42:39;14.65;;;13.25;;
57730;SDS011;43570;47.476;19.040;2023-08-21T02:45:05;14.40;;;13.10;;
57730;SDS011;43570;47.476;19.040;2023-08-21T02:47:37;14.10;;;12.63;;
57730;SDS011;43570;47.476;19.040;2023-08-21T02:50:03;15.00;;;13.50;;
57730;SDS011;43570;47.476;19.040;2023-08-21T02:52:32;14.10;;;12.80;;
57730;SDS011;43570;47.476;19.040;2023-08-21T02:54:58;19.70;;;15.13;;
57730;SDS011;43570;47.476;19.040;2023-08-21T02:57:24;15.43;;;14.18;;
57730;SDS011;43570;47.476;19.040;2023-08-21T02:59:50;14.63;;;13.23;;
57730;SDS011;43570;47.476;19.040;2023-08-21T03:02:16;15.05;;;13.55;;
57730;SDS011;43570;47.476;19.040;2023-08-21T03:04:42;15.00;;;13.65;;
57730;SDS011;43570;47.476;19.040;2023-08-21T03:07:07;14.57;;;13.18;;
57730;SDS011;43570;47.476;19.040;2023-08-21T03:09:32;15.00;;;13.57;;
57730;SDS011;43570;47.476;19.040;2023-08-21T03:11:58;15.90;;;13.05;;
57730;SDS011;43570;47.476;19.040;2023-08-21T03:14:24;14.38;;;12.80;;
57730;SDS011;43570;47.476;19.040;2023-08-21T03:16:51;14.85;;;13.57;;
57730;SDS011;43570;47.476;19.040;2023-08-21T03:19:16;15.65;;;14.15;;
57730;SDS011;43570;47.476;19.040;2023-08-21T03:21:42;15.23;;;13.70;;
57730;SDS011;43570;47.476;19.040;2023-08-21T03:24:07;15.15;;;13.68;;
57730;SDS011;43570;47.476;19.040;2023-08-21T03:26:32;17.12;;;14.55;;
57730;SDS011;43570;47.476;19.040;2023-08-21T03:28:58;16.12;;;14.50;;
57730;SDS011;43570;47.476;19.040;2023-08-21T03:31:23;15.70;;;14.13;;
57730;SDS011;43570;47.476;19.040;2023-08-21T03:33:48;15.95;;;14.38;;
57730;SDS011;43570;47.476;19.040;2023-08-21T03:36:14;15.95;;;14.43;;
57730;SDS011;43570;47.476;19.040;2023-08-21T03:38:39;16.00;;;14.38;;
57730;SDS011;43570;47.476;19.040;2023-08-21T03:41:05;15.82;;;14.20;;
57730;SDS011;43570;47.476;19.040;2023-08-21T03:43:31;16.20;;;14.70;;
57730;SDS011;43570;47.476;19.040;2023-08-21T03:45:57;16.62;;;14.23;;
57730;SDS011;43570;47.476;19.040;2023-08-21T03:48:22;16.85;;;15.13;;
57730;SDS011;43570;47.476;19.040;2023-08-21T03:50:48;16.45;;;14.70;;
57730;SDS011;43570;47.476;19.040;2023-08-21T03:53:14;16.45;;;14.90;;
57730;SDS011;43570;47.476;19.040;2023-08-21T03:55:39;15.18;;;13.88;;
57730;SDS011;43570;47.476;19.040;2023-08-21T03:58:05;15.90;;;14.35;;
57730;SDS011;43570;47.476;19.040;2023-08-21T04:00:30;17.55;;;15.13;;
57730;SDS011;43570;47.476;19.040;2023-08-21T04:02:56;15.73;;;14.15;;
57730;SDS011;43570;47.476;19.040;2023-08-21T04:05:22;16.85;;;15.15;;
57730;SDS011;43570;47.476;19.040;2023-08-21T04:07:47;16.02;;;14.52;;
57730;SDS011;43570;47.476;19.040;2023-08-21T04:10:13;16.80;;;15.07;;
57730;SDS011;43570;47.476;19.040;2023-08-21T04:12:38;16.85;;;15.07;;
57730;SDS011;43570;47.476;19.040;2023-08-21T04:15:03;16.62;;;15.02;;
57730;SDS011;43570;47.476;19.040;2023-08-21T04:17:31;15.82;;;14.32;;
57730;SDS011;43570;47.476;19.040;2023-08-21T04:19:56;15.95;;;14.40;;
57730;SDS011;43570;47.476;19.040;2023-08-21T04:22:22;16.65;;;14.90;;
57730;SDS011;43570;47.476;19.040;2023-08-21T04:24:47;15.15;;;13.85;;
57730;SDS011;43570;47.476;19.040;2023-08-21T04:27:13;15.07;;;13.68;;
57730;SDS011;43570;47.476;19.040;2023-08-21T04:29:38;15.43;;;14.00;;
57730;SDS011;43570;47.476;19.040;2023-08-21T04:32:04;16.83;;;14.65;;
57730;SDS011;43570;47.476;19.040;2023-08-21T04:34:30;15.13;;;13.60;;
57730;SDS011;43570;47.476;19.040;2023-08-21T04:36:57;16.00;;;14.57;;
57730;SDS011;43570;47.476;19.040;2023-08-21T04:39:22;15.10;;;13.60;;
57730;SDS011;43570;47.476;19.040;2023-08-21T04:41:48;16.08;;;14.48;;
57730;SDS011;43570;47.476;19.040;2023-08-21T04:44:13;16.00;;;14.43;;
57730;SDS011;43570;47.476;19.040;2023-08-21T04:46:38;15.55;;;13.90;;
57730;SDS011;43570;47.476;19.040;2023-08-21T04:49:04;16.45;;;13.68;;
57730;SDS011;43570;47.476;19.040;2023-08-21T04:51:29;14.43;;;13.02;;
57730;SDS011;43570;47.476;19.040;2023-08-21T04:53:54;14.07;;;12.73;;
57730;SDS011;43570;47.476;19.040;2023-08-21T04:56:20;13.93;;;12.52;;
57730;SDS011;43570;47.476;19.040;2023-08-21T04:58:45;14.98;;;12.93;;
57730;SDS011;43570;47.476;19.040;2023-08-21T05:01:10;14.73;;;13.32;;
57730;SDS011;43570;47.476;19.040;2023-08-21T05:03:37;15.15;;;13.65;;
57730;SDS011;43570;47.476;19.040;2023-08-21T05:06:02;16.12;;;14.52;;
57730;SDS011;43570;47.476;19.040;2023-08-21T05:08:27;16.37;;;14.80;;
57730;SDS011;43570;47.476;19.040;2023-08-21T05:10:56;15.25;;;13.85;;
57730;SDS011;43570;47.476;19.040;2023-08-21T05:13:25;15.93;;;14.32;;
57730;SDS011;43570;47.476;19.040;2023-08-21T05:15:51;15.82;;;14.30;;
57730;SDS011;43570;47.476;19.040;2023-08-21T05:18:18;15.43;;;13.82;;
57730;SDS011;43570;47.476;19.040;2023-08-21T05:20:43;15.80;;;13.88;;
57730;SDS011;43570;47.476;19.040;2023-08-21T05:23:09;16.77;;;13.52;;
57730;SDS011;43570;47.476;19.040;2023-08-21T05:25:34;16.35;;;14.65;;
57730;SDS011;43570;47.476;19.040;2023-08-21T05:28:00;15.75;;;14.18;;
57730;SDS011;43570;47.476;19.040;2023-08-21T05:30:25;15.95;;;14.38;;
57730;SDS011;43570;47.476;19.040;2023-08-21T05:32:50;16.00;;;13.73;;
57730;SDS011;43570;47.476;19.040;2023-08-21T05:35:16;17.42;;;13.93;;
57730;SDS011;43570;47.476;19.040;2023-08-21T05:37:41;15.88;;;13.93;;
57730;SDS011;43570;47.476;19.040;2023-08-21T05:40:07;14.43;;;12.98;;
57730;SDS011;43570;47.476;19.040;2023-08-21T05:42:33;13.50;;;12.10;;
57730;SDS011;43570;47.476;19.040;2023-08-21T05:44:58;14.70;;;12.52;;
57730;SDS011;43570;47.476;19.040;2023-08-21T05:47:24;14.52;;;13.00;;
57730;SDS011;43570;47.476;19.040;2023-08-21T05:49:49;15.25;;;13.65;;
57730;SDS011;43570;47.476;19.040;2023-08-21T05:52:15;13.82;;;12.45;;
57730;SDS011;43570;47.476;19.040;2023-08-21T05:54:40;14.48;;;12.98;;
57730;SDS011;43570;47.476;19.040;2023-08-21T05:57:06;15.38;;;12.65;;
57730;SDS011;43570;47.476;19.040;2023-08-21T05:59:32;16.42;;;14.30;;
57730;SDS011;43570;47.476;19.040;2023-08-21T06:01:57;14.50;;;13.10;;
57730;SDS011;43570;47.476;19.040;2023-08-21T06:04:23;13.02;;;11.93;;
57730;SDS011;43570;47.476;19.040;2023-08-21T06:06:49;14.57;;;13.07;;
57730;SDS011;43570;47.476;19.040;2023-08-21T06:09:15;14.45;;;12.93;;
57730;SDS011;43570;47.476;19.040;2023-08-21T06:11:42;15.55;;;12.82;;
57730;SDS011;43570;47.476;19.040;2023-08-21T06:14:08;13.85;;;12.45;;
57730;SDS011;43570;47.476;19.040;2023-08-21T06:16:33;15.45;;;12.63;;
57730;SDS011;43570;47.476;19.040;2023-08-21T06:18:58;12.80;;;11.57;;
57730;SDS011;43570;47.476;19.040;2023-08-21T06:21:24;13.18;;;11.88;;
57730;SDS011;43570;47.476;19.040;2023-08-21T06:23:49;13.55;;;12.13;;
57730;SDS011;43570;47.476;19.040;2023-08-21T06:26:14;13.20;;;11.65;;
57730;SDS011;43570;47.476;19.040;2023-08-21T06:28:40;12.07;;;10.98;;
57730;SDS011;43570;47.476;19.040;2023-08-21T06:31:05;12.85;;;11.65;;
57730;SDS011;43570;47.476;19.040;2023-08-21T06:33:33;14.23;;;11.97;;
57730;SDS011;43570;47.476;19.040;2023-08-21T06:35:59;16.55;;;14.05;;
57730;SDS011;43570;47.476;19.040;2023-08-21T06:38:24;12.95;;;11.68;;
57730;SDS011;43570;47.476;19.040;2023-08-21T06:40:49;12.85;;;11.55;;
57730;SDS011;43570;47.476;19.040;2023-08-21T06:43:16;13.25;;;12.00;;
57730;SDS011;43570;47.476;19.040;2023-08-21T06:45:41;14.70;;;11.95;;
57730;SDS011;43570;47.476;19.040;2023-08-21T06:48:07;13.00;;;11.60;;
57730;SDS011;43570;47.476;19.040;2023-08-21T06:50:32;14.90;;;11.77;;
57730;SDS011;43570;47.476;19.040;2023-08-21T06:52:58;13.00;;;11.70;;
57730;SDS011;43570;47.476;19.040;2023-08-21T06:55:26;14.75;;;13.25;;
57730;SDS011;43570;47.476;19.040;2023-08-21T06:57:51;12.57;;;11.35;;
57730;SDS011;43570;47.476;19.040;2023-08-21T07:00:17;12.75;;;11.65;;
57730;SDS011;43570;47.476;19.040;2023-08-21T07:02:42;13.57;;;12.25;;
57730;SDS011;43570;47.476;19.040;2023-08-21T07:05:08;12.25;;;10.90;;
57730;SDS011;43570;47.476;19.040;2023-08-21T07:07:33;13.13;;;11.77;;
57730;SDS011;43570;47.476;19.040;2023-08-21T07:09:58;14.68;;;12.37;;
57730;SDS011;43570;47.476;19.040;2023-08-21T07:12:24;15.80;;;13.95;;
57730;SDS011;43570;47.476;19.040;2023-08-21T07:14:49;14.43;;;13.02;;
57730;SDS011;43570;47.476;19.040;2023-08-21T07:17:15;15.05;;;13.48;;
57730;SDS011;43570;47.476;19.040;2023-08-21T07:19:40;13.15;;;11.95;;
57730;SDS011;43570;47.476;19.040;2023-08-21T07:22:05;14.10;;;11.98;;
57730;SDS011;43570;47.476;19.040;2023-08-21T07:24:31;12.75;;;11.45;;
57730;SDS011;43570;47.476;19.040;2023-08-21T07:26:56;13.15;;;11.93;;
57730;SDS011;43570;47.476;19.040;2023-08-21T07:29:21;12.95;;;11.75;;
57730;SDS011;43570;47.476;19.040;2023-08-21T07:31:47;13.73;;;12.07;;
57730;SDS011;43570;47.476;19.040;2023-08-21T07:34:12;13.25;;;12.05;;
57730;SDS011;43570;47.476;19.040;2023-08-21T07:36:37;13.07;;;11.77;;
57730;SDS011;43570;47.476;19.040;2023-08-21T07:39:03;14.57;;;11.70;;
57730;SDS011;43570;47.476;19.040;2023-08-21T07:41:28;13.65;;;12.40;;
57730;SDS011;43570;47.476;19.040;2023-08-21T07:43:54;12.30;;;11.10;;
57730;SDS011;43570;47.476;19.040;2023-08-21T07:46:19;13.40;;;12.05;;
57730;SDS011;43570;47.476;19.040;2023-08-21T07:48:45;12.98;;;11.68;;
57730;SDS011;43570;47.476;19.040;2023-08-21T07:51:12;14.45;;;12.18;;
57730;SDS011;43570;47.476;19.040;2023-08-21T07:53:38;13.07;;;11.32;;
57730;SDS011;43570;47.476;19.040;2023-08-21T07:56:03;12.52;;;11.43;;
57730;SDS011;43570;47.476;19.040;2023-08-21T07:58:29;13.98;;;12.73;;
57730;SDS011;43570;47.476;19.040;2023-08-21T08:00:55;13.55;;;12.25;;
57730;SDS011;43570;47.476;19.040;2023-08-21T08:03:21;12.82;;;11.63;;
57730;SDS011;43570;47.476;19.040;2023-08-21T08:05:46;12.75;;;11.48;;
57730;SDS011;43570;47.476;19.040;2023-08-21T08:08:12;12.88;;;11.68;;
57730;SDS011;43570;47.476;19.040;2023-08-21T08:10:38;12.13;;;11.00;;
57730;SDS011;43570;47.476;19.040;2023-08-21T08:13:04;12.68;;;11.35;;
57730;SDS011;43570;47.476;19.040;2023-08-21T08:15:30;13.77;;;12.05;;
57730;SDS011;43570;47.476;19.040;2023-08-21T08:17:55;13.65;;;11.60;;
57730;SDS011;43570;47.476;19.040;2023-08-21T08:20:22;14.35;;;11.15;;
57730;SDS011;43570;47.476;19.040;2023-08-21T08:22:47;13.60;;;12.05;;
57730;SDS011;43570;47.476;19.040;2023-08-21T08:25:13;12.95;;;11.80;;
57730;SDS011;43570;47.476;19.040;2023-08-21T08:27:39;14.38;;;12.05;;
57730;SDS011;43570;47.476;19.040;2023-08-21T08:30:05;12.10;;;11.00;;
57730;SDS011;43570;47.476;19.040;2023-08-21T08:34:58;11.77;;;10.57;;
57730;SDS011;43570;47.476;19.040;2023-08-21T08:37:24;13.20;;;11.68;;
57730;SDS011;43570;47.476;19.040;2023-08-21T08:39:50;12.80;;;11.50;;
57730;SDS011;43570;47.476;19.040;2023-08-21T08:42:15;12.98;;;11.57;;
57730;SDS011;43570;47.476;19.040;2023-08-21T08:44:42;13.27;;;11.98;;
57730;SDS011;43570;47.476;19.040;2023-08-21T08:47:08;14.02;;;10.90;;
57730;SDS011;43570;47.476;19.040;2023-08-21T08:49:34;12.75;;;11.52;;
57730;SDS011;43570;47.476;19.040;2023-08-21T08:51:59;11.88;;;10.68;;
57730;SDS011;43570;47.476;19.040;2023-08-21T08:54:25;12.88;;;11.63;;
57730;SDS011;43570;47.476;19.040;2023-08-21T08:56:51;14.23;;;11.88;;
57730;SDS011;43570;47.476;19.040;2023-08-21T08:59:17;13.73;;;12.25;;
57730;SDS011;43570;47.476;19.040;2023-08-21T09:01:43;12.70;;;11.50;;
57730;SDS011;43570;47.476;19.040;2023-08-21T09:04:08;12.07;;;10.88;;
57730;SDS011;43570;47.476;19.040;2023-08-21T09:06:34;12.50;;;11.30;;
57730;SDS011;43570;47.476;19.040;2023-08-21T09:09:00;13.38;;;10.30;;
57730;SDS011;43570;47.476;19.040;2023-08-21T09:11:26;12.82;;;11.27;;
57730;SDS011;43570;47.476;19.040;2023-08-21T09:13:52;12.65;;;11.32;;
57730;SDS011;43570;47.476;19.040;2023-08-21T09:16:18;13.02;;;11.82;;
57730;SDS011;43570;47.476;19.040;2023-08-21T09:18:51;12.18;;;10.98;;
57730;SDS011;43570;47.476;19.040;2023-08-21T09:21:19;16.00;;;10.98;;
57730;SDS011;43570;47.476;19.040;2023-08-21T09:23:45;12.63;;;11.35;;
57730;SDS011;43570;47.476;19.040;2023-08-21T09:26:20;11.73;;;10.63;;
57730;SDS011;43570;47.476;19.040;2023-08-21T09:28:52;11.20;;;10.05;;
57730;SDS011;43570;47.476;19.040;2023-08-21T09:31:22;12.20;;;10.75;;
57730;SDS011;43570;47.476;19.040;2023-08-21T09:34:04;12.05;;;11.05;;
57730;SDS011;43570;47.476;19.040;2023-08-21T09:36:33;11.82;;;10.65;;
57730;SDS011;43570;47.476;19.040;2023-08-21T09:38:59;14.73;;;13.00;;
57730;SDS011;43570;47.476;19.040;2023-08-21T09:41:25;13.50;;;10.82;;
57730;SDS011;43570;47.476;19.040;2023-08-21T09:43:51;12.90;;;10.73;;
57730;SDS011;43570;47.476;19.040;2023-08-21T09:46:17;11.50;;;10.45;;
57730;SDS011;43570;47.476;19.040;2023-08-21T09:48:46;10.10;;;9.13;;
57730;SDS011;43570;47.476;19.040;2023-08-21T09:51:12;12.00;;;10.90;;
57730;SDS011;43570;47.476;19.040;2023-08-21T09:53:37;12.95;;;11.77;;
57730;SDS011;43570;47.476;19.040;2023-08-21T09:56:04;13.50;;;10.35;;
57730;SDS011;43570;47.476;19.040;2023-08-21T09:58:30;11.88;;;10.75;;
57730;SDS011;43570;47.476;19.040;2023-08-21T10:00:57;11.05;;;10.00;;
57730;SDS011;43570;47.476;19.040;2023-08-21T10:03:23;14.87;;;13.38;;
57730;SDS011;43570;47.476;19.040;2023-08-21T10:05:49;14.75;;;10.27;;
57730;SDS011;43570;47.476;19.040;2023-08-21T10:08:18;12.20;;;10.95;;
57730;SDS011;43570;47.476;19.040;2023-08-21T10:10:48;12.00;;;10.80;;
57730;SDS011;43570;47.476;19.040;2023-08-21T10:13:13;10.80;;;9.80;;
57730;SDS011;43570;47.476;19.040;2023-08-21T10:15:39;11.93;;;10.63;;
57730;SDS011;43570;47.476;19.040;2023-08-21T10:18:22;15.55;;;13.65;;
57730;SDS011;43570;47.476;19.040;2023-08-21T10:20:48;12.13;;;10.98;;
57730;SDS011;43570;47.476;19.040;2023-08-21T10:23:28;11.48;;;10.38;;
57730;SDS011;43570;47.476;19.040;2023-08-21T10:26:02;14.10;;;12.50;;
57730;SDS011;43570;47.476;19.040;2023-08-21T10:28:45;11.40;;;10.23;;
57730;SDS011;43570;47.476;19.040;2023-08-21T10:34:00;11.00;;;10.00;;
57730;SDS011;43570;47.476;19.040;2023-08-21T10:36:40;11.80;;;10.70;;
57730;SDS011;43570;47.476;19.040;2023-08-21T10:39:25;11.50;;;10.32;;
57730;SDS011;43570;47.476;19.040;2023-08-21T10:44:33;12.13;;;10.98;;
57730;SDS011;43570;47.476;19.040;2023-08-21T10:49:41;11.93;;;10.82;;
57730;SDS011;43570;47.476;19.040;2023-08-21T10:52:08;11.38;;;10.38;;
57730;SDS011;43570;47.476;19.040;2023-08-21T10:57:30;11.05;;;9.43;;
57730;SDS011;43570;47.476;19.040;2023-08-21T10:59:57;11.43;;;10.40;;
57730;SDS011;43570;47.476;19.040;2023-08-21T11:02:23;11.88;;;10.77;;
57730;SDS011;43570;47.476;19.040;2023-08-21T11:04:50;11.85;;;10.73;;
57730;SDS011;43570;47.476;19.040;2023-08-21T11:07:15;11.63;;;10.38;;
57730;SDS011;43570;47.476;19.040;2023-08-21T11:09:41;13.70;;;10.30;;
57730;SDS011;43570;47.476;19.040;2023-08-21T11:12:25;11.43;;;10.23;;
57730;SDS011;43570;47.476;19.040;2023-08-21T11:14:51;13.30;;;10.98;;
57730;SDS011;43570;47.476;19.040;2023-08-21T11:17:16;11.63;;;10.52;;
57730;SDS011;43570;47.476;19.040;2023-08-21T11:19:44;13.90;;;12.65;;
57730;SDS011;43570;47.476;19.040;2023-08-21T11:22:11;11.27;;;9.73;;
57730;SDS011;43570;47.476;19.040;2023-08-21T11:27:02;11.47;;;10.37;;
57730;SDS011;43570;47.476;19.040;2023-08-21T11:29:29;12.52;;;10.82;;
57730;SDS011;43570;47.476;19.040;2023-08-21T11:32:01;11.82;;;10.50;;
57730;SDS011;43570;47.476;19.040;2023-08-21T11:34:28;10.80;;;9.90;;
57730;SDS011;43570;47.476;19.040;2023-08-21T11:36:53;12.30;;;11.02;;
57730;SDS011;43570;47.476;19.040;2023-08-21T11:39:19;11.85;;;10.65;;
57730;SDS011;43570;47.476;19.040;2023-08-21T11:41:54;11.93;;;10.73;;
57730;SDS011;43570;47.476;19.040;2023-08-21T11:44:23;11.60;;;10.50;;
57730;SDS011;43570;47.476;19.040;2023-08-21T11:46:52;11.27;;;9.95;;
57730;SDS011;43570;47.476;19.040;2023-08-21T11:49:20;13.50;;;12.10;;
57730;SDS011;43570;47.476;19.040;2023-08-21T11:51:47;12.18;;;11.07;;
57730;SDS011;43570;47.476;19.040;2023-08-21T11:54:13;11.88;;;10.40;;
57730;SDS011;43570;47.476;19.040;2023-08-21T11:56:38;10.70;;;9.77;;
57730;SDS011;43570;47.476;19.040;2023-08-21T11:59:06;11.38;;;10.32;;
57730;SDS011;43570;47.476;19.040;2023-08-21T12:01:34;11.77;;;10.65;;
57730;SDS011;43570;47.476;19.040;2023-08-21T12:04:00;11.85;;;10.80;;
57730;SDS011;43570;47.476;19.040;2023-08-21T12:06:26;12.05;;;10.95;;
57730;SDS011;43570;47.476;19.040;2023-08-21T12:08:52;10.73;;;9.82;;
57730;SDS011;43570;47.476;19.040;2023-08-21T12:11:17;11.57;;;10.38;;
57730;SDS011;43570;47.476;19.040;2023-08-21T12:13:43;12.13;;;11.02;;
57730;SDS011;43570;47.476;19.040;2023-08-21T12:16:08;12.02;;;10.85;;
57730;SDS011;43570;47.476;19.040;2023-08-21T12:18:34;11.12;;;10.02;;
57730;SDS011;43570;47.476;19.040;2023-08-21T12:20:59;11.43;;;10.25;;
57730;SDS011;43570;47.476;19.040;2023-08-21T12:23:25;11.12;;;10.13;;
57730;SDS011;43570;47.476;19.040;2023-08-21T12:25:50;11.18;;;10.07;;
57730;SDS011;43570;47.476;19.040;2023-08-21T12:28:16;12.37;;;11.12;;
57730;SDS011;43570;47.476;19.040;2023-08-21T12:30:41;11.90;;;10.70;;
57730;SDS011;43570;47.476;19.040;2023-08-21T12:33:07;10.38;;;9.48;;
57730;SDS011;43570;47.476;19.040;2023-08-21T12:35:32;11.20;;;10.05;;
57730;SDS011;43570;47.476;19.040;2023-08-21T12:37:58;11.85;;;9.88;;
57730;SDS011;43570;47.476;19.040;2023-08-21T12:40:23;11.80;;;10.70;;
57730;SDS011;43570;47.476;19.040;2023-08-21T12:42:49;10.82;;;9.80;;
57730;SDS011;43570;47.476;19.040;2023-08-21T12:45:15;10.80;;;9.80;;
57730;SDS011;43570;47.476;19.040;2023-08-21T12:47:41;10.48;;;9.40;;
57730;SDS011;43570;47.476;19.040;2023-08-21T12:50:06;11.23;;;10.13;;
57730;SDS011;43570;47.476;19.040;2023-08-21T12:52:32;12.25;;;9.57;;
57730;SDS011;43570;47.476;19.040;2023-08-21T12:54:57;11.40;;;10.18;;
57730;SDS011;43570;47.476;19.040;2023-08-21T12:57:24;12.40;;;11.20;;
57730;SDS011;43570;47.476;19.040;2023-08-21T12:59:51;10.85;;;9.85;;
57730;SDS011;43570;47.476;19.040;2023-08-21T13:02:16;10.68;;;9.63;;
57730;SDS011;43570;47.476;19.040;2023-08-21T13:04:43;11.18;;;10.02;;
57730;SDS011;43570;47.476;19.040;2023-08-21T13:07:09;11.30;;;10.15;;
57730;SDS011;43570;47.476;19.040;2023-08-21T13:09:35;10.23;;;9.32;;
57730;SDS011;43570;47.476;19.040;2023-08-21T13:12:00;13.10;;;11.85;;
57730;SDS011;43570;47.476;19.040;2023-08-21T13:14:26;11.10;;;10.07;;
57730;SDS011;43570;47.476;19.040;2023-08-21T13:16:51;11.20;;;10.10;;
57730;SDS011;43570;47.476;19.040;2023-08-21T13:19:17;13.43;;;10.05;;
57730;SDS011;43570;47.476;19.040;2023-08-21T13:21:42;9.95;;;9.05;;
57730;SDS011;43570;47.476;19.040;2023-08-21T13:24:08;11.00;;;9.45;;
57730;SDS011;43570;47.476;19.040;2023-08-21T13:26:33;10.73;;;9.73;;
57730;SDS011;43570;47.476;19.040;2023-08-21T13:28:58;15.55;;;10.85;;
57730;SDS011;43570;47.476;19.040;2023-08-21T13:31:24;11.10;;;10.15;;
57730;SDS011;43570;47.476;19.040;2023-08-21T13:33:50;10.90;;;9.90;;
57730;SDS011;43570;47.476;19.040;2023-08-21T13:36:16;10.60;;;9.60;;
57730;SDS011;43570;47.476;19.040;2023-08-21T13:38:45;10.73;;;9.63;;
57730;SDS011;43570;47.476;19.040;2023-08-21T13:41:10;10.57;;;9.68;;
57730;SDS011;43570;47.476;19.040;2023-08-21T13:43:36;11.15;;;10.20;;
57730;SDS011;43570;47.476;19.040;2023-08-21T13:46:01;9.88;;;8.88;;
57730;SDS011;43570;47.476;19.040;2023-08-21T13:48:30;9.98;;;9.00;;
57730;SDS011;43570;47.476;19.040;2023-08-21T13:50:56;9.23;;;8.32;;
57730;SDS011;43570;47.476;19.040;2023-08-21T13:53:21;10.15;;;9.25;;
57730;SDS011;43570;47.476;19.040;2023-08-21T13:55:47;10.55;;;9.55;;
57730;SDS011;43570;47.476;19.040;2023-08-21T13:58:12;10.73;;;9.73;;
57730;SDS011;43570;47.476;19.040;2023-08-21T14:00:38;10.07;;;9.13;;
57730;SDS011;43570;47.476;19.040;2023-08-21T14:03:04;10.43;;;9.30;;
57730;SDS011;43570;47.476;19.040;2023-08-21T14:05:29;10.48;;;9.18;;
57730;SDS011;43570;47.476;19.040;2023-08-21T14:07:56;11.07;;;8.98;;
57730;SDS011;43570;47.476;19.040;2023-08-21T14:10:22;9.63;;;8.55;;
57730;SDS011;43570;47.476;19.040;2023-08-21T14:12:47;9.38;;;7.75;;
57730;SDS011;43570;47.476;19.040;2023-08-21T14:15:13;10.38;;;8.73;;
57730;SDS011;43570;47.476;19.040;2023-08-21T14:17:38;8.60;;;7.70;;
57730;SDS011;43570;47.476;19.040;2023-08-21T14:20:03;8.00;;;7.07;;
57730;SDS011;43570;47.476;19.040;2023-08-21T14:22:29;8.07;;;7.30;;
57730;SDS011;43570;47.476;19.040;2023-08-21T14:24:55;7.72;;;6.93;;
57730;SDS011;43570;47.476;19.040;2023-08-21T14:27:20;9.50;;;7.20;;